Time;durP1;ratioP1;P1;durP2;ratioP2;P2;SDS_P1;SDS_P2;PMS_P1;PMS_P2;Temp;Humidity;BMP_temperature;BMP_pressure;BME280_temperature;BME280_humidity;BME280_pressure;Samples;Min_cycle;Max_cycle;Signal;HPM_P1;HPM_P2
2023/06/25 00:01:04;;;;;;;;;;;;;;;19.12;76.88;101709.88;4139382;28;20034;-65
2023/06/25 00:03:06;;;;;;;;;;;;;;;19.14;76.88;101709.66;4139570;28;20021;-65
2023/06/25 00:05:08;;;;;;;;;;;;;;;19.12;76.77;101704.41;4139164;28;20463;-65
2023/06/25 00:07:10;;;;;;;;;;;;;;;19.09;76.87;101707.59;4135330;28;20060;-65
2023/06/25 00:09:13;;;;;;;;;;;;;;;19.05;77.10;101704.41;4139046;28;20366;-64
2023/06/25 00:11:15;;;;;;;;;;;;;;;19.02;77.20;101707.56;4138723;28;20004;-65
2023/06/25 00:13:17;;;;;;;;;;;;;;;19.01;77.46;101707.78;4138884;28;20013;-65
2023/06/25 00:15:19;;;;;;;;;;;;;;;18.99;77.46;101710.72;4139215;28;20456;-64
2023/06/25 00:17:21;;;;;;;;;;;;;;;18.95;77.62;101700.41;4139382;28;20024;-64
2023/06/25 00:19:23;;;;;;;;;;;;;;;18.92;77.58;101709.91;4138951;28;20028;-64
2023/06/25 00:21:25;;;;;;;;;;;;;;;18.88;77.84;101706.72;4139298;28;20024;-65
2023/06/25 00:23:27;;;;;;;;;;;;;;;18.87;78.14;101706.91;4139071;28;20023;-65
2023/06/25 00:25:30;;;;;;;;;;;;;;;18.86;78.10;101703.34;4137365;28;19977;-63
2023/06/25 00:27:32;;;;;;;;;;;;;;;18.85;78.23;101704.38;4138552;28;20017;-65
2023/06/25 00:29:35;;;;;;;;;;;;;;;18.83;78.24;101706.47;4120362;28;19930;-66
2023/06/25 00:31:37;;;;;;;;;;;;;;;18.83;78.51;101701.00;4134339;28;20052;-66
2023/06/25 00:33:39;;;;;;;;;;;;;;;18.85;78.59;101703.56;4139115;28;20027;-64
2023/06/25 00:35:44;;;;;;;;;;;;;;;18.88;78.54;101703.16;4138951;28;20419;-64
2023/06/25 00:37:46;;;;;;;;;;;;;;;18.93;78.26;101697.88;4132106;28;20012;-64
2023/06/25 00:39:48;;;;;;;;;;;;;;;18.95;78.22;101693.06;4136874;28;20048;-64
2023/06/25 00:41:51;;;;;;;;;;;;;;;18.93;78.01;101692.41;4136970;28;20016;-64
2023/06/25 00:43:53;;;;;;;;;;;;;;;18.89;78.02;101692.00;4137334;28;20024;-64
2023/06/25 00:45:55;;;;;;;;;;;;;;;18.86;78.49;101695.13;4138895;28;20021;-64
2023/06/25 00:47:58;;;;;;;;;;;;;;;18.84;78.40;101696.34;4133985;28;20032;-64
2023/06/25 00:50:00;;;;;;;;;;;;;;;18.80;78.30;101689.63;4121731;28;20025;-64
2023/06/25 00:52:08;;;;;;;;;;;;;;;18.75;78.53;101686.69;4138717;28;20048;-64
2023/06/25 00:54:12;;;;;;;;;;;;;;;18.70;78.78;101692.78;4136556;28;20354;-63
2023/06/25 00:56:15;;;;;;;;;;;;;;;18.68;79.22;101690.25;4137659;28;20016;-64
2023/06/25 00:58:20;;;;;;;;;;;;;;;18.70;79.36;101692.78;4137080;28;20013;-64
2023/06/25 01:00:24;;;;;;;;;;;;;;;18.73;79.41;101695.94;4136306;28;20385;-64
2023/06/25 01:02:27;;;;;;;;;;;;;;;18.76;79.00;101686.47;4138683;28;19976;-64
2023/06/25 01:04:29;;;;;;;;;;;;;;;18.80;79.16;101687.72;4138698;28;20020;-64
2023/06/25 01:06:33;;;;;;;;;;;;;;;18.81;79.03;101692.16;4137039;28;20362;-64
2023/06/25 01:08:35;;;;;;;;;;;;;;;18.78;78.77;101695.31;4139186;28;19998;-64
2023/06/25 01:10:38;;;;;;;;;;;;;;;18.73;78.78;101693.19;4137815;28;20033;-64
2023/06/25 01:12:42;;;;;;;;;;;;;;;18.71;79.25;101689.84;4136750;28;20032;-64
2023/06/25 01:14:49;;;;;;;;;;;;;;;18.68;79.31;101692.13;4120719;28;20021;-64
2023/06/25 01:16:51;;;;;;;;;;;;;;;18.66;79.77;101694.25;4138672;28;20363;-64
2023/06/25 01:18:56;;;;;;;;;;;;;;;18.69;79.94;101685.63;4136120;28;20029;-64
2023/06/25 01:20:58;;;;;;;;;;;;;;;18.70;80.01;101693.63;4121247;28;20021;-64
2023/06/25 01:23:01;;;;;;;;;;;;;;;18.75;80.15;101694.91;4120864;28;20028;-64
2023/06/25 01:25:04;;;;;;;;;;;;;;;18.78;80.04;101688.97;4128169;28;20516;-64
2023/06/25 01:27:06;;;;;;;;;;;;;;;18.79;79.87;101685.19;4127895;28;20016;-64
2023/06/25 01:29:08;;;;;;;;;;;;;;;18.75;79.90;101684.78;4138062;28;20029;-64
2023/06/25 01:31:10;;;;;;;;;;;;;;;18.71;80.26;101687.09;4133915;28;20060;-64
2023/06/25 01:33:15;;;;;;;;;;;;;;;18.69;80.06;101686.44;4136633;28;20428;-64
2023/06/25 01:35:18;;;;;;;;;;;;;;;18.67;80.37;101677.63;4138225;28;20436;-64
2023/06/25 01:37:19;;;;;;;;;;;;;;;18.66;80.24;101681.38;4137661;28;20025;-64
2023/06/25 01:39:23;;;;;;;;;;;;;;;18.63;80.33;101678.25;4136036;28;20004;-64
2023/06/25 01:41:25;;;;;;;;;;;;;;;18.62;80.50;101676.53;4137071;28;20504;-64
2023/06/25 01:43:27;;;;;;;;;;;;;;;18.63;80.88;101672.78;4136305;28;20476;-63
2023/06/25 01:45:29;;;;;;;;;;;;;;;18.63;80.95;101675.50;4137179;28;20004;-64
2023/06/25 01:47:31;;;;;;;;;;;;;;;18.66;81.00;101677.81;4127874;28;20021;-64
2023/06/25 01:49:33;;;;;;;;;;;;;;;18.67;81.09;101665.84;4137679;28;20469;-64
2023/06/25 01:51:35;;;;;;;;;;;;;;;18.65;80.89;101666.03;4140588;28;20005;-64
2023/06/25 01:53:37;;;;;;;;;;;;;;;18.62;81.00;101663.72;4141280;28;20016;-64
2023/06/25 01:55:40;;;;;;;;;;;;;;;18.59;81.23;101661.41;4140883;28;20023;-64
2023/06/25 01:57:42;;;;;;;;;;;;;;;18.57;81.26;101655.28;4136227;28;20016;-64
2023/06/25 01:59:44;;;;;;;;;;;;;;;18.55;81.55;101657.38;4141066;28;20024;-64
2023/06/25 02:01:47;;;;;;;;;;;;;;;18.57;81.44;101648.97;4141303;28;20020;-64
2023/06/25 02:03:49;;;;;;;;;;;;;;;18.60;81.54;101660.34;4136183;28;20016;-64
2023/06/25 02:05:51;;;;;;;;;;;;;;;18.62;81.23;101650.03;4123465;28;20028;-64
2023/06/25 02:07:53;;;;;;;;;;;;;;;18.65;81.48;101652.38;4137378;28;20467;-64
2023/06/25 02:09:55;;;;;;;;;;;;;;;18.67;81.16;101658.47;4140476;28;20368;-64
2023/06/25 02:11:59;;;;;;;;;;;;;;;18.71;81.17;101653.41;4139321;28;20017;-64
2023/06/25 02:14:01;;;;;;;;;;;;;;;18.74;80.80;101647.53;4140533;28;20020;-64
2023/06/25 02:16:03;;;;;;;;;;;;;;;18.73;80.35;101651.31;4123688;28;20037;-64
2023/06/25 02:18:05;;;;;;;;;;;;;;;18.73;80.40;101652.16;4140486;28;20063;-63
2023/06/25 02:20:08;;;;;;;;;;;;;;;18.77;80.32;101652.56;4138641;28;20012;-64
2023/06/25 02:22:10;;;;;;;;;;;;;;;18.78;80.04;101657.00;4138988;28;20348;-64
2023/06/25 02:24:12;;;;;;;;;;;;;;;18.78;79.57;101658.88;4141230;28;20012;-63
2023/06/25 02:26:14;;;;;;;;;;;;;;;18.76;79.52;101650.03;4133833;28;20024;-62
2023/06/25 02:28:18;;;;;;;;;;;;;;;18.73;79.63;101654.91;4141169;28;20359;-60
2023/06/25 02:30:19;;;;;;;;;;;;;;;18.75;79.98;101654.69;4139471;28;20064;-60
2023/06/25 02:32:21;;;;;;;;;;;;;;;18.74;80.29;101647.53;4140435;28;20023;-62
2023/06/25 02:34:23;;;;;;;;;;;;;;;18.73;80.11;101651.31;4122067;28;20052;-59
2023/06/25 02:36:25;;;;;;;;;;;;;;;18.73;80.55;101646.69;4140722;28;20023;-66
2023/06/25 02:38:27;;;;;;;;;;;;;;;18.71;80.43;101648.78;4140736;28;20470;-60
2023/06/25 02:40:29;;;;;;;;;;;;;;;18.69;80.26;101645.41;4140348;28;20021;-62
2023/06/25 02:42:31;;;;;;;;;;;;;;;18.66;80.64;101647.72;4134658;28;20466;-60
2023/06/25 02:44:36;;;;;;;;;;;;;;;18.66;80.63;101651.28;4138446;28;20402;-61
2023/06/25 02:46:38;;;;;;;;;;;;;;;18.65;80.91;101643.28;4140073;28;20024;-64
2023/06/25 02:48:42;;;;;;;;;;;;;;;18.64;80.94;101639.72;4133173;28;20036;-59
2023/06/25 02:50:45;;;;;;;;;;;;;;;18.65;81.23;101641.41;4134912;28;20036;-62
2023/06/25 02:52:48;;;;;;;;;;;;;;;18.65;81.29;101641.41;4137443;28;20016;-61
2023/06/25 02:54:50;;;;;;;;;;;;;;;18.66;81.12;101639.53;4139222;28;20016;-63
2023/06/25 02:56:53;;;;;;;;;;;;;;;18.65;81.47;101638.69;4138926;28;20033;-59
2023/06/25 02:58:55;;;;;;;;;;;;;;;18.66;81.40;101634.88;4138164;28;20037;-60
2023/06/25 03:00:58;;;;;;;;;;;;;;;18.66;81.24;101636.78;4138208;28;20017;-63
2023/06/25 03:03:00;;;;;;;;;;;;;;;18.67;81.45;101636.56;4137775;28;20016;-68
2023/06/25 03:05:02;;;;;;;;;;;;;;;18.70;81.21;101627.13;4121977;28;20420;-62
2023/06/25 03:07:05;;;;;;;;;;;;;;;18.71;80.79;101631.53;4122938;28;20016;-62
2023/06/25 03:09:08;;;;;;;;;;;;;;;18.72;80.65;101634.03;4137427;28;20021;-64
2023/06/25 03:11:10;;;;;;;;;;;;;;;18.72;80.36;101622.25;4139218;28;20036;-67
2023/06/25 03:13:12;;;;;;;;;;;;;;;18.73;80.10;101627.53;4126663;28;20028;-62
2023/06/25 03:15:14;;;;;;;;;;;;;;;18.75;79.60;101634.69;4121677;28;20017;-63
2023/06/25 03:17:18;;;;;;;;;;;;;;;18.76;79.53;101633.63;4137903;28;20025;-63
2023/06/25 03:19:20;;;;;;;;;;;;;;;18.78;79.43;101635.13;4139110;28;20068;-68
2023/06/25 03:21:22;;;;;;;;;;;;;;;18.80;79.27;101633.00;4138207;28;20029;-63
2023/06/25 03:23:24;;;;;;;;;;;;;;;18.87;79.45;101630.28;4138486;28;20012;-62
2023/06/25 03:25:26;;;;;;;;;;;;;;;18.91;79.30;101637.88;4136785;28;20012;-61
2023/06/25 03:27:41;;;;;;;;;;;;;;;18.94;79.11;101628.41;4137301;28;20031;-61
2023/06/25 03:29:43;;;;;;;;;;;;;;;18.94;78.89;101625.66;4137198;28;20012;-62
2023/06/25 03:31:46;;;;;;;;;;;;;;;19.04;78.70;101636.19;4121496;28;20464;-64
2023/06/25 03:33:52;;;;;;;;;;;;;;;19.08;78.09;101631.97;4137713;28;20017;-62
2023/06/25 03:35:55;;;;;;;;;;;;;;;19.07;78.56;101627.53;4137186;28;20354;-63
2023/06/25 03:37:59;;;;;;;;;;;;;;;19.05;78.94;101632.41;4113725;28;20028;-63
2023/06/25 03:40:01;;;;;;;;;;;;;;;19.04;79.26;101634.31;4138035;28;20013;-63
2023/06/25 03:42:03;;;;;;;;;;;;;;;19.05;79.42;101626.94;4134097;28;20498;-62
2023/06/25 03:44:05;;;;;;;;;;;;;;;19.04;79.79;101626.09;4137746;28;20016;-61
2023/06/25 03:46:08;;;;;;;;;;;;;;;19.06;79.58;101621.25;4138397;28;20044;-64
2023/06/25 03:48:10;;;;;;;;;;;;;;;19.11;79.34;101622.47;4138044;28;20515;-62
2023/06/25 03:50:14;;;;;;;;;;;;;;;19.11;79.35;101623.34;4118002;28;20064;-63
2023/06/25 03:52:16;;;;;;;;;;;;;;;19.12;79.88;101622.25;4136660;28;20016;-61
2023/06/25 03:54:18;;;;;;;;;;;;;;;19.13;79.96;101618.47;4138920;28;20024;-62
2023/06/25 03:56:21;;;;;;;;;;;;;;;19.14;80.16;101624.78;4138269;28;20029;-63
2023/06/25 03:58:23;;;;;;;;;;;;;;;19.14;79.94;101622.06;4122325;28;20020;-63
2023/06/25 04:00:25;;;;;;;;;;;;;;;19.14;79.61;101619.31;4128270;28;20028;-65
2023/06/25 04:02:27;;;;;;;;;;;;;;;19.12;79.19;101622.25;4137297;28;20016;-64
2023/06/25 04:04:29;;;;;;;;;;;;;;;19.08;78.73;101616.38;4138433;28;20278;-62
2023/06/25 04:06:35;;;;;;;;;;;;;;;19.08;78.70;101616.38;4139419;28;20476;-60
2023/06/25 04:08:39;;;;;;;;;;;;;;;19.08;78.73;101618.28;4137100;28;20078;-68
2023/06/25 04:10:41;;;;;;;;;;;;;;;19.08;78.63;101621.03;4131401;28;20033;-62
2023/06/25 04:12:44;;;;;;;;;;;;;;;19.08;79.11;101621.84;4121782;28;20025;-62
2023/06/25 04:14:46;;;;;;;;;;;;;;;19.09;79.68;101617.25;4120892;28;20020;-62
2023/06/25 04:16:50;;;;;;;;;;;;;;;19.12;79.88;101621.44;4137332;28;20584;-62
2023/06/25 04:18:52;;;;;;;;;;;;;;;19.11;79.95;101620.59;4137293;28;20459;-61
2023/06/25 04:20:54;;;;;;;;;;;;;;;19.12;80.07;101626.91;4133728;28;20035;-60
2023/06/25 04:22:58;;;;;;;;;;;;;;;19.11;79.79;101622.47;4138791;28;20025;-63
2023/06/25 04:25:00;;;;;;;;;;;;;;;19.12;79.80;101624.16;4137399;28;20000;-62
2023/06/25 04:27:02;;;;;;;;;;;;;;;19.12;79.41;101627.75;4138321;28;20032;-62
2023/06/25 04:29:05;;;;;;;;;;;;;;;19.14;79.52;101620.19;4137707;28;20016;-62
2023/06/25 04:31:08;;;;;;;;;;;;;;;19.18;79.51;101621.41;4120819;28;20029;-63
2023/06/25 04:33:10;;;;;;;;;;;;;;;19.22;79.66;101622.69;4123389;28;20029;-61
2023/06/25 04:35:13;;;;;;;;;;;;;;;19.25;79.30;101613.22;4121332;28;20402;-65
2023/06/25 04:37:16;;;;;;;;;;;;;;;19.23;78.68;101618.03;4133870;28;20029;-62
2023/06/25 04:39:20;;;;;;;;;;;;;;;19.23;78.63;101618.91;4135389;28;20037;-61
2023/06/25 04:41:22;;;;;;;;;;;;;;;19.26;78.68;101620.34;4137775;28;20020;-64
2023/06/25 04:43:24;;;;;;;;;;;;;;;19.27;78.91;101616.56;4137303;28;20016;-63
2023/06/25 04:45:27;;;;;;;;;;;;;;;19.30;79.34;101618.06;4137427;28;20057;-61
2023/06/25 04:47:31;;;;;;;;;;;;;;;19.31;79.40;101619.72;4121696;28;20024;-64
2023/06/25 04:49:34;;;;;;;;;;;;;;;19.33;78.78;101618.47;4137409;28;20016;-61
2023/06/25 04:51:36;;;;;;;;;;;;;;;19.35;78.86;101620.97;4136997;28;20029;-65
2023/06/25 04:53:38;;;;;;;;;;;;;;;19.36;79.40;101620.78;4122795;28;20037;-62
2023/06/25 04:55:41;;;;;;;;;;;;;;;19.38;79.64;101626.03;4122035;28;20021;-63
2023/06/25 04:57:43;;;;;;;;;;;;;;;19.38;79.74;101631.50;4117309;28;20444;-64
2023/06/25 04:59:45;;;;;;;;;;;;;;;19.37;79.59;101625.19;4121750;28;20029;-61
2023/06/25 05:01:47;;;;;;;;;;;;;;;19.39;79.26;101625.81;4122699;28;20012;-62
2023/06/25 05:03:49;;;;;;;;;;;;;;;19.39;78.74;101622.25;4121995;28;20080;-63
2023/06/25 05:05:51;;;;;;;;;;;;;;;19.39;78.78;101616.78;4130727;28;20016;-63
2023/06/25 05:07:53;;;;;;;;;;;;;;;19.39;78.60;101612.13;4122255;28;20041;-60
2023/06/25 05:09:57;;;;;;;;;;;;;;;19.41;78.40;101617.38;4122047;28;20028;-59
2023/06/25 05:12:01;;;;;;;;;;;;;;;19.42;78.12;101605.38;4122096;28;20477;-61
2023/06/25 05:14:03;;;;;;;;;;;;;;;19.43;78.20;101605.13;4121141;28;20013;-63
2023/06/25 05:16:05;;;;;;;;;;;;;;;19.45;78.04;101608.53;4122539;28;20452;-64
2023/06/25 05:18:07;;;;;;;;;;;;;;;19.47;78.02;101605.56;4128868;28;19972;-63
2023/06/25 05:20:10;;;;;;;;;;;;;;;19.53;77.95;101609.31;4121292;28;20389;-61
2023/06/25 05:22:12;;;;;;;;;;;;;;;19.58;77.55;101610.38;4122238;28;20013;-63
2023/06/25 05:24:14;;;;;;;;;;;;;;;19.63;76.78;101615.22;4121827;28;20020;-60
2023/06/25 05:26:16;;;;;;;;;;;;;;;19.69;76.41;101616.25;4120360;28;20033;-64
2023/06/25 05:28:19;;;;;;;;;;;;;;;19.73;76.04;101615.59;4121761;28;20022;-64
2023/06/25 05:30:21;;;;;;;;;;;;;;;19.77;75.20;101619.59;4121484;28;20013;-65
2023/06/25 05:32:23;;;;;;;;;;;;;;;19.78;75.17;101621.31;4133476;28;20028;-64
2023/06/25 05:34:25;;;;;;;;;;;;;;;19.77;74.95;101619.59;4136178;28;20020;-64
2023/06/25 05:36:28;;;;;;;;;;;;;;;19.77;75.06;101616.03;4137980;28;20012;-64
2023/06/25 05:38:30;;;;;;;;;;;;;;;19.77;74.02;101616.03;4138022;28;20460;-62
2023/06/25 05:40:32;;;;;;;;;;;;;;;19.78;73.85;101612.22;4137660;28;20020;-64
2023/06/25 05:42:34;;;;;;;;;;;;;;;19.78;73.47;101614.97;4135785;28;20398;-60
2023/06/25 05:44:38;;;;;;;;;;;;;;;19.78;73.72;101607.59;4137482;28;20434;-61
2023/06/25 05:46:40;;;;;;;;;;;;;;;19.79;73.60;101616.66;4138104;28;20374;-62
2023/06/25 05:48:42;;;;;;;;;;;;;;;19.80;74.00;101616.44;4137969;28;20020;-62
2023/06/25 05:50:44;;;;;;;;;;;;;;;19.82;74.05;101616.22;4136304;28;20016;-64
2023/06/25 05:52:46;;;;;;;;;;;;;;;19.84;73.54;101613.25;4138531;28;20012;-64
2023/06/25 05:54:48;;;;;;;;;;;;;;;19.87;73.62;101613.66;4137315;28;20020;-65
2023/06/25 05:56:50;;;;;;;;;;;;;;;19.90;73.39;101609.66;4134225;28;20028;-62
2023/06/25 05:58:52;;;;;;;;;;;;;;;19.92;72.63;101621.22;4137879;28;20472;-65
2023/06/25 06:00:55;;;;;;;;;;;;;;;19.93;72.68;101609.22;4136529;28;20036;-65
2023/06/25 06:02:57;;;;;;;;;;;;;;;19.95;73.11;101615.31;4136969;28;20436;-64
2023/06/25 06:04:59;;;;;;;;;;;;;;;19.97;73.38;101613.22;4137733;28;20025;-63
2023/06/25 06:07:01;;;;;;;;;;;;;;;19.99;73.10;101608.34;4137540;28;20013;-64
2023/06/25 06:09:03;;;;;;;;;;;;;;;19.99;72.72;101611.09;4136773;28;20016;-64
2023/06/25 06:11:05;;;;;;;;;;;;;;;20.00;72.79;101610.03;4137855;28;20471;-64
2023/06/25 06:13:07;;;;;;;;;;;;;;;20.04;72.85;101608.53;4137752;28;20029;-64
2023/06/25 06:15:09;;;;;;;;;;;;;;;20.06;72.88;101605.56;4137223;28;20045;-64
2023/06/25 06:17:13;;;;;;;;;;;;;;;20.07;72.76;101610.81;4131621;28;20032;-64
2023/06/25 06:19:15;;;;;;;;;;;;;;;20.11;72.89;101620.31;4136620;28;20025;-64
2023/06/25 06:21:17;;;;;;;;;;;;;;;20.14;72.99;101610.78;4135072;28;20013;-64
2023/06/25 06:23:19;;;;;;;;;;;;;;;20.17;72.98;101621.31;4138290;28;20456;-64
2023/06/25 06:25:21;;;;;;;;;;;;;;;20.21;72.63;101613.50;4137671;28;20008;-64
2023/06/25 06:27:23;;;;;;;;;;;;;;;20.25;72.07;101617.47;4138086;28;20020;-64
2023/06/25 06:29:25;;;;;;;;;;;;;;;20.28;71.85;101617.03;4136085;28;20025;-64
2023/06/25 06:31:27;;;;;;;;;;;;;;;20.31;71.44;101609.22;4137722;28;20027;-64
2023/06/25 06:33:31;;;;;;;;;;;;;;;20.34;71.23;101608.78;4132652;28;20017;-64
2023/06/25 06:35:33;;;;;;;;;;;;;;;20.38;71.37;101611.09;4133549;28;20024;-64
2023/06/25 06:37:35;;;;;;;;;;;;;;;20.40;70.84;101609.78;4137892;28;20028;-64
2023/06/25 06:39:37;;;;;;;;;;;;;;;20.43;70.75;101611.25;4140067;28;20468;-64
2023/06/25 06:41:39;;;;;;;;;;;;;;;20.46;70.45;101608.06;4140699;28;20028;-62
2023/06/25 06:43:41;;;;;;;;;;;;;;;20.47;69.72;101612.47;4137121;28;20359;-62
2023/06/25 06:45:43;;;;;;;;;;;;;;;20.49;70.02;101602.97;4140644;28;20372;-63
2023/06/25 06:47:45;;;;;;;;;;;;;;;20.51;70.26;101600.84;4141326;28;20016;-63
2023/06/25 06:49:48;;;;;;;;;;;;;;;20.53;70.35;101598.72;4134919;28;20021;-62
2023/06/25 06:51:50;;;;;;;;;;;;;;;20.56;70.04;101602.91;4136548;28;20024;-61
2023/06/25 06:53:52;;;;;;;;;;;;;;;20.59;69.26;101604.38;4139918;28;20041;-62
2023/06/25 06:55:54;;;;;;;;;;;;;;;20.61;68.82;101608.59;4140417;28;20040;-63
2023/06/25 06:57:56;;;;;;;;;;;;;;;20.63;69.03;101602.88;4138910;28;20032;-62
2023/06/25 06:59:58;;;;;;;;;;;;;;;20.67;68.61;101598.63;4140077;28;20020;-63
2023/06/25 07:02:00;;;;;;;;;;;;;;;20.68;68.22;101597.59;4139556;28;20016;-63
2023/06/25 07:04:02;;;;;;;;;;;;;;;20.70;67.40;101603.69;4139574;28;20876;-63
2023/06/25 07:06:06;;;;;;;;;;;;;;;20.72;67.45;101603.47;4140438;28;20020;-63
2023/06/25 07:08:08;;;;;;;;;;;;;;;20.73;66.87;101599.66;4141171;28;20440;-63
2023/06/25 07:10:10;;;;;;;;;;;;;;;20.75;66.21;101601.09;4139583;28;20353;-63
2023/06/25 07:12:12;;;;;;;;;;;;;;;20.77;66.66;101590.75;4140372;28;20467;-64
2023/06/25 07:14:14;;;;;;;;;;;;;;;20.81;67.19;101591.13;4139469;28;20021;-64
2023/06/25 07:16:17;;;;;;;;;;;;;;;20.84;67.55;101593.44;4140325;28;20005;-63
2023/06/25 07:18:18;;;;;;;;;;;;;;;20.86;67.11;101592.16;4140639;28;20029;-63
2023/06/25 07:20:21;;;;;;;;;;;;;;;20.87;65.53;101588.31;4105300;28;20431;-62
2023/06/25 07:22:24;;;;;;;;;;;;;;;20.90;66.16;101587.03;4139769;28;20028;-63
2023/06/25 07:24:26;;;;;;;;;;;;;;;20.92;65.56;101587.66;4139851;28;20014;-62
2023/06/25 07:26:29;;;;;;;;;;;;;;;20.94;65.95;101580.03;4140164;28;20431;-63
2023/06/25 07:28:31;;;;;;;;;;;;;;;20.97;66.21;101581.47;4137609;28;20021;-62
2023/06/25 07:30:33;;;;;;;;;;;;;;;21.00;66.54;101583.78;4139298;28;20033;-63
2023/06/25 07:32:35;;;;;;;;;;;;;;;21.02;66.16;101581.66;4139753;28;20017;-63
2023/06/25 07:34:37;;;;;;;;;;;;;;;21.04;65.12;101585.00;4140373;28;20016;-63
2023/06/25 07:36:39;;;;;;;;;;;;;;;21.07;65.93;101592.81;4122463;28;20025;-63
2023/06/25 07:38:43;;;;;;;;;;;;;;;21.10;66.28;101589.59;4135165;28;20569;-63
2023/06/25 07:40:45;;;;;;;;;;;;;;;21.13;66.72;101593.78;4139376;28;20020;-63
2023/06/25 07:42:47;;;;;;;;;;;;;;;21.16;66.96;101594.19;4138849;28;20451;-63
2023/06/25 07:44:49;;;;;;;;;;;;;;;21.18;66.83;101588.47;4136787;28;20412;-62
2023/06/25 07:46:51;;;;;;;;;;;;;;;21.21;66.77;101594.34;4138331;28;20033;-62
2023/06/25 07:48:53;;;;;;;;;;;;;;;21.24;66.65;101588.38;4136050;28;20439;-62
2023/06/25 07:50:56;;;;;;;;;;;;;;;21.26;66.43;101588.16;4139273;28;20016;-62
2023/06/25 07:52:58;;;;;;;;;;;;;;;21.30;66.53;101583.03;4138573;28;20024;-62
2023/06/25 07:55:02;;;;;;;;;;;;;;;21.32;65.53;101589.16;4136120;28;20361;-62
2023/06/25 07:57:04;;;;;;;;;;;;;;;21.34;65.65;101582.34;4137766;28;20023;-62
2023/06/25 07:59:06;;;;;;;;;;;;;;;21.35;65.92;101575.81;4138810;28;20036;-62
2023/06/25 08:01:08;;;;;;;;;;;;;;;21.38;65.90;101582.75;4139278;28;20016;-62
2023/06/25 08:03:10;;;;;;;;;;;;;;;21.41;66.25;101583.13;4138814;28;20020;-63
2023/06/25 08:05:12;;;;;;;;;;;;;;;21.45;65.92;101589.00;4135809;28;20020;-62
2023/06/25 08:07:14;;;;;;;;;;;;;;;21.48;65.41;101584.97;4138646;28;20016;-63
2023/06/25 08:09:16;;;;;;;;;;;;;;;21.52;64.78;101583.44;4138158;28;20028;-62
2023/06/25 08:11:19;;;;;;;;;;;;;;;21.54;64.67;101579.41;4136743;28;20021;-63
2023/06/25 08:13:21;;;;;;;;;;;;;;;21.56;64.84;101580.00;4138639;28;20020;-63
2023/06/25 08:15:23;;;;;;;;;;;;;;;21.59;64.61;101582.31;4137857;28;20013;-61
2023/06/25 08:17:25;;;;;;;;;;;;;;;21.63;64.69;101584.59;4136362;28;20040;-63
2023/06/25 08:19:27;;;;;;;;;;;;;;;21.66;64.16;101579.50;4137608;28;20020;-64
2023/06/25 08:21:29;;;;;;;;;;;;;;;21.68;64.50;101582.03;4139349;28;20016;-63
2023/06/25 08:23:31;;;;;;;;;;;;;;;21.69;64.75;101587.28;4139230;28;20459;-62
2023/06/25 08:25:33;;;;;;;;;;;;;;;21.72;64.30;101575.81;4137666;28;20017;-63
2023/06/25 08:27:36;;;;;;;;;;;;;;;21.75;64.68;101577.25;4137642;28;20021;-64
2023/06/25 08:29:40;;;;;;;;;;;;;;;21.76;64.22;101576.19;4136752;28;20016;-63
2023/06/25 08:31:42;;;;;;;;;;;;;;;21.79;63.95;101578.47;4137515;28;20427;-63
2023/06/25 08:33:44;;;;;;;;;;;;;;;21.81;64.01;101581.00;4138300;28;20020;-63
2023/06/25 08:35:46;;;;;;;;;;;;;;;21.82;64.15;101572.53;4137160;28;20436;-63
2023/06/25 08:37:48;;;;;;;;;;;;;;;21.83;64.30;101578.84;4137034;28;20443;-64
2023/06/25 08:39:50;;;;;;;;;;;;;;;21.83;63.80;101574.19;4119955;28;20020;-63
2023/06/25 08:41:53;;;;;;;;;;;;;;;21.85;63.88;101569.31;4137260;28;20377;-63
2023/06/25 08:43:56;;;;;;;;;;;;;;;21.89;63.82;101578.75;4137486;28;20807;-63
2023/06/25 08:45:58;;;;;;;;;;;;;;;21.92;63.60;101574.72;4137785;28;20024;-63
2023/06/25 08:48:00;;;;;;;;;;;;;;;21.95;63.52;101571.50;4134112;28;20478;-63
2023/06/25 08:50:03;;;;;;;;;;;;;;;21.99;63.28;101567.22;4138404;28;20024;-63
2023/06/25 08:52:05;;;;;;;;;;;;;;;22.07;63.07;101572.38;4137975;28;20480;-63
2023/06/25 08:54:08;;;;;;;;;;;;;;;22.10;62.89;101571.91;4137617;28;20331;-63
2023/06/25 08:56:10;;;;;;;;;;;;;;;22.13;62.93;101565.09;4136908;28;19986;-63
2023/06/25 08:58:12;;;;;;;;;;;;;;;22.14;63.08;101562.09;4136858;28;20087;-63
2023/06/25 09:00:16;;;;;;;;;;;;;;;22.16;62.53;101564.63;4137108;28;20032;-63
2023/06/25 09:02:18;;;;;;;;;;;;;;;22.17;63.11;101573.72;4137824;28;20028;-64
2023/06/25 09:04:20;;;;;;;;;;;;;;;22.17;62.54;101565.47;4136291;28;20024;-63
2023/06/25 09:06:22;;;;;;;;;;;;;;;22.23;62.33;101570.88;4138034;28;20483;-63
2023/06/25 09:08:25;;;;;;;;;;;;;;;22.24;62.42;101567.06;4136622;28;20032;-63
2023/06/25 09:10:31;;;;;;;;;;;;;;;22.27;62.41;101565.72;4136027;28;20024;-64
2023/06/25 09:12:33;;;;;;;;;;;;;;;22.31;61.91;101559.56;4136266;28;20379;-64
2023/06/25 09:14:35;;;;;;;;;;;;;;;22.35;61.92;101559.09;4135343;28;20017;-64
2023/06/25 09:16:50;;;;;;;;;;;;;;;22.35;62.07;101556.34;4122272;28;20414;-64
2023/06/25 09:18:53;;;;;;;;;;;;;;;22.39;62.02;101554.78;4134572;28;20016;-63
2023/06/25 09:20:55;;;;;;;;;;;;;;;22.43;62.13;101559.59;4117894;28;20025;-64
2023/06/25 09:22:58;;;;;;;;;;;;;;;22.42;61.82;101557.06;4136096;28;20368;-64
2023/06/25 09:25:00;;;;;;;;;;;;;;;22.45;61.71;101553.84;4135961;28;20024;-63
2023/06/25 09:27:03;;;;;;;;;;;;;;;22.46;61.66;101559.13;4137872;28;20020;-63
2023/06/25 09:29:05;;;;;;;;;;;;;;;22.44;61.75;101544.72;4136799;28;20029;-63
2023/06/25 09:31:07;;;;;;;;;;;;;;;22.50;61.59;101559.47;4135138;28;20024;-64
2023/06/25 09:33:11;;;;;;;;;;;;;;;22.52;61.85;101551.81;4135948;28;20412;-64
2023/06/25 09:35:18;;;;;;;;;;;;;;;22.52;61.46;101548.22;4137619;28;20025;-63
2023/06/25 09:37:20;;;;;;;;;;;;;;;22.50;61.77;101545.72;4137892;28;20029;-64
2023/06/25 09:39:22;;;;;;;;;;;;;;;22.51;61.70;101541.91;4134761;28;20881;-65
2023/06/25 09:41:24;;;;;;;;;;;;;;;22.54;61.80;101538.66;4137085;28;20028;-64
2023/06/25 09:43:27;;;;;;;;;;;;;;;22.56;61.42;101542.00;4137263;28;20020;-63
2023/06/25 09:45:29;;;;;;;;;;;;;;;22.57;61.41;101540.09;4136847;28;20036;-63
2023/06/25 09:47:31;;;;;;;;;;;;;;;22.61;61.32;101538.53;4135566;28;20024;-63
2023/06/25 09:49:34;;;;;;;;;;;;;;;22.67;61.22;101540.34;4137850;28;20447;-63
2023/06/25 09:51:38;;;;;;;;;;;;;;;22.73;60.74;101539.41;4138366;28;20032;-63
2023/06/25 09:53:41;;;;;;;;;;;;;;;22.77;60.73;101537.81;4134773;28;20016;-67
2023/06/25 09:55:43;;;;;;;;;;;;;;;22.77;61.05;101534.22;4137068;28;20001;-64
2023/06/25 09:57:45;;;;;;;;;;;;;;;22.75;61.02;101525.38;4138183;28;20016;-67
2023/06/25 09:59:47;;;;;;;;;;;;;;;22.74;60.99;101529.22;4137336;28;20017;-67
2023/06/25 10:01:49;;;;;;;;;;;;;;;22.74;61.25;101524.53;4136365;28;20365;-66
2023/06/25 10:03:51;;;;;;;;;;;;;;;22.75;61.07;101522.63;4137738;28;20028;-67
2023/06/25 10:05:54;;;;;;;;;;;;;;;22.80;61.10;101523.56;4139201;28;20431;-66
2023/06/25 10:07:56;;;;;;;;;;;;;;;22.88;60.84;101519.63;4137529;28;20372;-66
2023/06/25 10:09:58;;;;;;;;;;;;;;;22.92;60.64;101517.25;4134598;28;20427;-67
2023/06/25 10:12:00;;;;;;;;;;;;;;;22.93;60.37;101508.75;4138994;28;20020;-66
2023/06/25 10:14:04;;;;;;;;;;;;;;;22.93;60.77;101511.50;4140601;28;20016;-66
2023/06/25 10:16:06;;;;;;;;;;;;;;;22.92;60.63;101507.06;4140859;28;20011;-66
2023/06/25 10:18:08;;;;;;;;;;;;;;;22.91;60.63;101502.59;4141145;28;20045;-66
2023/06/25 10:20:11;;;;;;;;;;;;;;;22.91;61.03;101501.78;4139742;28;20450;-66
2023/06/25 10:22:16;;;;;;;;;;;;;;;22.92;61.10;101503.47;4140754;28;20028;-66
2023/06/25 10:24:18;;;;;;;;;;;;;;;22.94;60.94;101504.06;4140847;28;20333;-66
2023/06/25 10:26:20;;;;;;;;;;;;;;;22.94;60.69;101507.63;4138654;28;20859;-66
2023/06/25 10:28:28;;;;;;;;;;;;;;;22.94;60.90;101509.56;4139559;28;20020;-66